EDW45 LSZH-LIPZ
Flight info
| Callsign | EDW45 |
|---|---|
| Flight time | N/A |
| Altitude | 33000 |
| Route | DEGES Z2 OSDOV M738 NATAG DCT LORLO DCT RENTA DCT UNTAD/N0453F290 DCT ADOSA/N0391F190 L612 ALBET |
| Aircraft | A343/H-SDE2E3FGHIJ4J5M1RWXY/LB1D1 |
Departure
| Time | 2026-02-21 23:03 |
|---|---|
| Airport | Zürich Airport (LSZH) |
Arrival
| Time | N/A |
|---|---|
| Airport | Venice Marco Polo Airport (LIPZ) |
| Time | Latitude | Longitude | Altitude | Speed | Heading |
|---|---|---|---|---|---|
| 2026-02-21 22:40 | 47.46062 | 8.55356 | 1400 ft | 0 kts | 6° |
| 2026-02-21 22:52 | 47.46048 | 8.55354 | 1407 ft | 2 kts | 8° |
| 2026-02-21 22:53 | 47.46032 | 8.55351 | 1399 ft | 2 kts | 10° |
| 2026-02-21 22:53 | 47.46016 | 8.55346 | 1402 ft | 2 kts | 14° |
| 2026-02-21 22:53 | 47.46000 | 8.55339 | 1404 ft | 2 kts | 23° |
| 2026-02-21 22:53 | 47.45986 | 8.55328 | 1406 ft | 2 kts | 51° |
| 2026-02-21 22:54 | 47.45979 | 8.55306 | 1410 ft | 2 kts | 96° |
| 2026-02-21 22:54 | 47.45980 | 8.55296 | 1408 ft | 0 kts | 101° |
| 2026-02-21 22:58 | 47.45974 | 8.55375 | 1406 ft | 17 kts | 96° |
| 2026-02-21 22:59 | 47.45959 | 8.55581 | 1408 ft | 21 kts | 96° |
| 2026-02-21 22:59 | 47.45940 | 8.55836 | 1409 ft | 27 kts | 96° |
| 2026-02-21 22:59 | 47.45971 | 8.55947 | 1412 ft | 14 kts | 41° |
| 2026-02-21 22:59 | 47.46013 | 8.56088 | 1413 ft | 16 kts | 89° |
| 2026-02-21 23:00 | 47.46025 | 8.56262 | 1417 ft | 18 kts | 60° |
| 2026-02-21 23:00 | 47.46131 | 8.56406 | 1415 ft | 20 kts | 19° |
| 2026-02-21 23:00 | 47.46201 | 8.56351 | 1413 ft | 0 kts | 317° |
| 2026-02-21 23:01 | 47.46204 | 8.56347 | 1414 ft | 6 kts | 317° |
| 2026-02-21 23:02 | 47.46389 | 8.56093 | 1413 ft | 70 kts | 317° |
| 2026-02-21 23:02 | 47.46896 | 8.55400 | 1405 ft | 122 kts | 317° |
| 2026-02-21 23:02 | 47.47594 | 8.54448 | 1402 ft | 150 kts | 317° |
| 2026-02-21 23:02 | 47.48398 | 8.53354 | 1510 ft | 159 kts | 316° |
| 2026-02-21 23:03 | 47.49250 | 8.52222 | 1793 ft | 164 kts | 317° |
| 2026-02-21 23:03 | 47.50060 | 8.51186 | 2355 ft | 142 kts | 315° |
| 2026-02-21 23:03 | 47.50927 | 8.50457 | 2160 ft | 149 kts | 346° |
| 2026-02-21 23:03 | 47.52035 | 8.50235 | 2564 ft | 169 kts | 342° |
| 2026-02-21 23:04 | 47.52861 | 8.49377 | 3029 ft | 136 kts | 291° |
| 2026-02-21 23:04 | 47.53165 | 8.48032 | 3222 ft | 139 kts | 284° |
| 2026-02-21 23:04 | 47.53586 | 8.46700 | 3220 ft | 141 kts | 293° |
| 2026-02-21 23:04 | 47.53819 | 8.45372 | 3124 ft | 141 kts | 261° |
| 2026-02-21 23:05 | 47.53480 | 8.43972 | 3468 ft | 151 kts | 248° |
| 2026-02-21 23:05 | 47.53024 | 8.42416 | 3771 ft | 176 kts | 249° |
| 2026-02-21 23:05 | 47.52494 | 8.40613 | 3840 ft | 211 kts | 246° |
| 2026-02-21 23:05 | 47.51738 | 8.38537 | 4272 ft | 240 kts | 237° |
| 2026-02-21 23:06 | 47.50396 | 8.36986 | 5113 ft | 255 kts | 203° |
| 2026-02-21 23:06 | 47.48671 | 8.36646 | 6237 ft | 253 kts | 181° |
| 2026-02-21 23:06 | 47.46902 | 8.37434 | 6536 ft | 287 kts | 149° |
| 2026-02-21 23:06 | 47.45688 | 8.39685 | 7527 ft | 282 kts | 109° |
| 2026-02-21 23:07 | 47.45424 | 8.42477 | 8626 ft | 274 kts | 92° |
| 2026-02-21 23:07 | 47.45347 | 8.45398 | 8881 ft | 298 kts | 86° |
| 2026-02-21 23:07 | 47.45584 | 8.48453 | 9705 ft | 294 kts | 78° |
| 2026-02-21 23:07 | 47.45832 | 8.51429 | 10596 ft | 297 kts | 83° |
| 2026-02-21 23:08 | 47.45803 | 8.54586 | 11055 ft | 309 kts | 89° |
| 2026-02-21 23:08 | 47.45853 | 8.57712 | 11878 ft | 305 kts | 83° |
| 2026-02-21 23:08 | 47.45979 | 8.60889 | 12449 ft | 312 kts | 83° |
| 2026-02-21 23:08 | 47.46068 | 8.64102 | 13161 ft | 315 kts | 84° |
| 2026-02-21 23:09 | 47.46150 | 8.67340 | 13787 ft | 318 kts | 83° |
| 2026-02-21 23:09 | 47.46293 | 8.70638 | 14426 ft | 322 kts | 81° |
| 2026-02-21 23:09 | 47.46442 | 8.73948 | 15042 ft | 325 kts | 82° |
| 2026-02-21 23:09 | 47.46545 | 8.77303 | 15655 ft | 329 kts | 83° |
| 2026-02-21 23:10 | 47.46644 | 8.80710 | 16238 ft | 334 kts | 81° |
| 2026-02-21 23:10 | 47.46535 | 8.84189 | 16754 ft | 346 kts | 95° |
| 2026-02-21 23:10 | 47.45954 | 8.87664 | 17463 ft | 350 kts | 101° |
| 2026-02-21 23:10 | 47.45331 | 8.91171 | 18028 ft | 353 kts | 97° |
| 2026-02-21 23:11 | 47.44921 | 8.94724 | 18736 ft | 352 kts | 92° |
| 2026-02-21 23:11 | 47.44502 | 8.98325 | 19262 ft | 359 kts | 97° |
| 2026-02-21 23:11 | 47.43891 | 9.01930 | 19887 ft | 362 kts | 100° |
| 2026-02-21 23:11 | 47.43292 | 9.05529 | 20275 ft | 363 kts | 96° |
| 2026-02-21 23:12 | 47.42849 | 9.09221 | 21078 ft | 364 kts | 93° |
| 2026-02-21 23:12 | 47.42379 | 9.12926 | 21673 ft | 369 kts | 97° |
| 2026-02-21 23:12 | 47.41759 | 9.16624 | 22259 ft | 373 kts | 99° |
| 2026-02-21 23:12 | 47.41338 | 9.20363 | 22725 ft | 368 kts | 81° |
| 2026-02-21 23:13 | 47.41827 | 9.23965 | 23317 ft | 350 kts | 64° |
| 2026-02-21 23:13 | 47.42504 | 9.27423 | 23960 ft | 356 kts | 69° |
| 2026-02-21 23:13 | 47.42937 | 9.31062 | 24212 ft | 369 kts | 74° |
| 2026-02-21 23:13 | 47.43344 | 9.34810 | 24759 ft | 364 kts | 70° |
| 2026-02-21 23:14 | 47.43989 | 9.38423 | 25184 ft | 363 kts | 65° |
| 2026-02-21 23:14 | 47.44663 | 9.41981 | 25651 ft | 367 kts | 68° |
| 2026-02-21 23:14 | 47.45153 | 9.45768 | 26135 ft | 373 kts | 72° |
| 2026-02-21 23:14 | 47.45608 | 9.49543 | 26602 ft | 373 kts | 69° |
| 2026-02-21 23:15 | 47.46119 | 9.52615 | 27031 ft | 371 kts | 66° |
| 2026-02-21 23:15 | 47.46770 | 9.56373 | 27501 ft | 375 kts | 68° |
| 2026-02-21 23:15 | 47.47239 | 9.60157 | 27891 ft | 387 kts | 77° |
| 2026-02-21 23:15 | 47.47068 | 9.64219 | 28301 ft | 402 kts | 90° |
| 2026-02-21 23:16 | 47.46710 | 9.68299 | 28882 ft | 398 kts | 86° |
| 2026-02-21 23:16 | 47.46591 | 9.72385 | 29258 ft | 398 kts | 82° |
| 2026-02-21 23:16 | 47.46503 | 9.76485 | 29711 ft | 404 kts | 85° |
| 2026-02-21 23:16 | 47.46186 | 9.80653 | 30161 ft | 410 kts | 89° |
| 2026-02-21 23:17 | 47.45829 | 9.84833 | 30563 ft | 410 kts | 86° |
| 2026-02-21 23:17 | 47.45668 | 9.89030 | 30938 ft | 409 kts | 83° |
| 2026-02-21 23:17 | 47.45541 | 9.93258 | 31303 ft | 415 kts | 85° |
| 2026-02-21 23:17 | 47.45245 | 9.97554 | 31428 ft | 427 kts | 88° |
| 2026-02-21 23:18 | 47.44685 | 10.06230 | 31435 ft | 418 kts | 83° |
| 2026-02-21 23:18 | 47.43772 | 10.14749 | 31329 ft | 437 kts | 107° |
| 2026-02-21 23:19 | 47.42249 | 10.18665 | 31374 ft | 448 kts | 121° |
| 2026-02-21 23:19 | 47.40004 | 10.21953 | 31353 ft | 461 kts | 141° |
| 2026-02-21 23:19 | 47.34527 | 10.26970 | 31414 ft | 464 kts | 146° |
| 2026-02-21 23:20 | 47.29048 | 10.31995 | 31366 ft | 464 kts | 146° |
| 2026-02-21 23:20 | 47.23526 | 10.36871 | 31417 ft | 463 kts | 146° |
| 2026-02-21 23:21 | 47.18047 | 10.41884 | 31396 ft | 465 kts | 145° |
| 2026-02-21 23:21 | 47.12525 | 10.46745 | 31401 ft | 462 kts | 145° |
| 2026-02-21 23:22 | 47.07035 | 10.51728 | 31397 ft | 464 kts | 146° |
| 2026-02-21 23:22 | 47.04154 | 10.53719 | 31352 ft | 466 kts | 161° |
| 2026-02-21 23:22 | 47.01001 | 10.55027 | 31398 ft | 467 kts | 165° |
| 2026-02-21 23:23 | 46.94796 | 10.57804 | 31393 ft | 465 kts | 159° |
| 2026-02-21 23:23 | 46.88638 | 10.60621 | 31308 ft | 467 kts | 165° |
| 2026-02-21 23:24 | 46.82502 | 10.63325 | 31381 ft | 458 kts | 159° |
| 2026-02-21 23:24 | 46.76385 | 10.66147 | 31340 ft | 462 kts | 164° |
| 2026-02-21 23:25 | 46.70239 | 10.68822 | 31339 ft | 461 kts | 160° |
| 2026-02-21 23:25 | 46.64113 | 10.71617 | 31340 ft | 460 kts | 164° |
| 2026-02-21 23:26 | 46.57960 | 10.74256 | 31311 ft | 461 kts | 160° |
| 2026-02-21 23:26 | 46.51857 | 10.77046 | 31313 ft | 460 kts | 163° |
| 2026-02-21 23:27 | 46.45710 | 10.79656 | 31284 ft | 459 kts | 160° |
| 2026-02-21 23:27 | 46.39654 | 10.82422 | 31301 ft | 456 kts | 163° |
| 2026-02-21 23:28 | 46.33542 | 10.85002 | 31279 ft | 457 kts | 160° |
| 2026-02-21 23:28 | 46.30455 | 10.86047 | 31257 ft | 459 kts | 176° |
| 2026-02-21 23:28 | 46.27288 | 10.85676 | 31207 ft | 454 kts | 195° |
| 2026-02-21 23:29 | 46.21027 | 10.84494 | 31174 ft | 462 kts | 170° |
| 2026-02-21 23:29 | 46.14838 | 10.86774 | 31275 ft | 462 kts | 167° |
| 2026-02-21 23:30 | 46.08547 | 10.88409 | 31297 ft | 459 kts | 166° |
| 2026-02-21 23:30 | 46.02364 | 10.90755 | 31312 ft | 459 kts | 166° |
| 2026-02-21 23:31 | 45.96138 | 10.92425 | 31323 ft | 458 kts | 167° |
| 2026-02-21 23:31 | 45.89917 | 10.94697 | 31324 ft | 458 kts | 166° |
| 2026-02-21 23:32 | 45.83697 | 10.96417 | 31324 ft | 459 kts | 168° |
| 2026-02-21 23:32 | 45.77509 | 10.98618 | 31327 ft | 459 kts | 165° |
| 2026-02-21 23:33 | 45.71204 | 11.00398 | 31324 ft | 459 kts | 168° |
| 2026-02-21 23:33 | 45.65243 | 11.03270 | 31235 ft | 453 kts | 140° |
| 2026-02-21 23:34 | 45.62935 | 11.06216 | 31272 ft | 440 kts | 124° |
| 2026-02-21 23:34 | 45.61207 | 11.09763 | 31331 ft | 432 kts | 114° |
| 2026-02-21 23:34 | 45.57969 | 11.17061 | 31322 ft | 437 kts | 117° |
| 2026-02-21 23:35 | 45.54689 | 11.24328 | 31320 ft | 434 kts | 114° |
| 2026-02-21 23:35 | 45.51432 | 11.31591 | 31322 ft | 436 kts | 117° |